Time;durP1;ratioP1;P1;durP2;ratioP2;P2;SDS_P1;SDS_P2;PMS_P1;PMS_P2;Temp;Humidity;BMP_temperature;BMP_pressure;BME280_temperature;BME280_humidity;BME280_pressure;Samples;Min_cycle;Max_cycle;Signal;HPM_P1;HPM_P2
2023/08/15 00:02:18;;;;;;;5.30;2.10;;;;;;;21.96;100.00;96184.84;5035782;28;20576;-86
2023/08/15 00:04:44;;;;;;;3.22;2.25;;;;;;;21.90;100.00;96191.22;5035106;28;20222;-86
2023/08/15 00:07:11;;;;;;;3.70;1.90;;;;;;;21.91;100.00;96187.47;5035397;28;20204;-86
2023/08/15 00:09:39;;;;;;;3.03;1.92;;;;;;;22.02;100.00;96191.91;5034474;28;20564;-86
2023/08/15 00:12:06;;;;;;;3.67;1.92;;;;;;;21.89;100.00;96189.59;5033808;28;20202;-86
2023/08/15 00:14:32;;;;;;;5.50;1.65;;;;;;;21.97;100.00;96191.84;5034053;28;20226;-87
2023/08/15 00:16:59;;;;;;;2.88;1.95;;;;;;;21.90;100.00;96185.84;5034054;28;20571;-86
2023/08/15 00:19:25;;;;;;;3.88;1.90;;;;;;;21.87;100.00;96197.06;5033967;28;20212;-87
2023/08/15 00:21:52;;;;;;;4.15;2.20;;;;;;;21.98;100.00;96205.00;5033924;28;20229;-86
2023/08/15 00:24:18;;;;;;;5.53;2.78;;;;;;;21.82;100.00;96205.06;5033791;28;20700;-86
2023/08/15 00:26:46;;;;;;;9.95;1.95;;;;;;;22.06;100.00;96205.41;5034225;28;20198;-87
2023/08/15 00:29:13;;;;;;;3.63;1.90;;;;;;;21.87;100.00;96205.94;5034453;28;20694;-87
2023/08/15 00:31:39;;;;;;;3.08;2.20;;;;;;;21.84;100.00;96209.13;5033929;28;20198;-87
2023/08/15 00:34:06;;;;;;;2.53;1.73;;;;;;;21.85;100.00;96205.34;5033703;28;20221;-87
2023/08/15 00:36:32;;;;;;;4.00;2.22;;;;;;;21.81;100.00;96198.06;5034046;28;20208;-86
2023/08/15 00:39:02;;;;;;;5.28;2.47;;;;;;;21.78;100.00;96196.69;5034452;28;20722;-86
2023/08/15 00:41:28;;;;;;;4.18;2.65;;;;;;;21.96;100.00;96195.56;5034590;28;20693;-86
2023/08/15 00:43:58;;;;;;;4.63;2.33;;;;;;;22.02;100.00;96199.97;5034379;28;20697;-87
2023/08/15 00:46:25;;;;;;;5.68;2.65;;;;;;;21.89;100.00;96205.69;5034454;28;20209;-86
2023/08/15 00:48:53;;;;;;;5.32;2.53;;;;;;;21.84;100.00;96203.75;5034108;28;20201;-87
2023/08/15 00:51:20;;;;;;;3.20;2.28;;;;;;;21.91;100.00;96203.59;5033374;28;20198;-87
2023/08/15 00:53:46;;;;;;;4.25;2.72;;;;;;;21.89;100.00;96200.31;5033781;28;20583;-86
2023/08/15 00:56:14;;;;;;;3.95;2.50;;;;;;;21.87;100.00;96214.00;5033058;28;20334;-86
2023/08/15 00:58:42;;;;;;;4.80;2.67;;;;;;;21.85;100.00;96215.28;5033581;28;20198;-86
2023/08/15 01:01:11;;;;;;;4.88;2.80;;;;;;;22.06;100.00;96213.44;5033543;28;20225;-86
2023/08/15 01:03:38;;;;;;;3.17;2.38;;;;;;;21.88;100.00;96209.41;5033234;28;20248;-86
2023/08/15 01:06:05;;;;;;;4.30;3.00;;;;;;;21.90;100.00;96202.75;5033258;28;20209;-86
2023/08/15 01:08:32;;;;;;;4.10;2.78;;;;;;;21.93;100.00;96196.06;5033186;28;20220;-86
2023/08/15 01:10:59;;;;;;;5.22;2.70;;;;;;;21.98;100.00;96198.84;5033431;28;20205;-86
2023/08/15 01:13:31;;;;;;;4.78;2.75;;;;;;;21.96;100.00;96203.63;5033457;28;20221;-86
2023/08/15 01:16:00;;;;;;;4.28;2.17;;;;;;;21.94;100.00;96197.72;5032808;28;20194;-86
2023/08/15 01:18:33;;;;;;;7.55;2.92;;;;;;;21.77;100.00;96202.31;5033278;28;20202;-87
2023/08/15 01:21:00;;;;;;;2.95;2.03;;;;;;;21.73;100.00;96206.53;5033611;28;20210;-87
2023/08/15 01:23:36;;;;;;;3.58;2.08;;;;;;;21.95;100.00;96208.19;5033271;28;20225;-86
2023/08/15 01:26:02;;;;;;;12.88;2.65;;;;;;;21.63;100.00;96207.19;5033300;28;20189;-87
2023/08/15 01:28:29;;;;;;;4.43;2.33;;;;;;;21.54;100.00;96202.50;5032433;28;20208;-87
2023/08/15 01:31:00;;;;;;;5.60;3.22;;;;;;;21.74;100.00;96194.72;5033379;28;20657;-86
2023/08/15 01:33:31;;;;;;;4.57;2.55;;;;;;;21.57;100.00;96196.63;5032960;28;20225;-87
2023/08/15 01:36:13;;;;;;;5.85;2.30;;;;;;;21.75;100.00;96189.13;5032977;28;20201;-86
2023/08/15 01:38:43;;;;;;;2.88;2.03;;;;;;;21.69;100.00;96186.59;5032761;28;20248;-87
2023/08/15 01:41:15;;;;;;;3.83;2.53;;;;;;;21.78;100.00;96190.50;5032742;28;20209;-86
2023/08/15 01:43:43;;;;;;;3.42;2.25;;;;;;;21.63;100.00;96192.97;5032547;28;20624;-87
2023/08/15 01:46:11;;;;;;;4.20;2.42;;;;;;;21.67;100.00;96186.06;5032718;28;20209;-86
2023/08/15 01:48:42;;;;;;;8.45;2.03;;;;;;;21.86;100.00;96203.50;5032664;28;20219;-86
2023/08/15 01:51:09;;;;;;;5.70;2.47;;;;;;;21.61;100.00;96198.59;5033044;28;20213;-86
2023/08/15 01:53:37;;;;;;;3.38;1.98;;;;;;;21.52;100.00;96201.91;5033220;28;20218;-86
2023/08/15 01:56:05;;;;;;;3.47;2.08;;;;;;;21.66;100.00;96204.00;5033288;28;20666;-86
2023/08/15 01:58:32;;;;;;;4.90;2.35;;;;;;;21.44;100.00;96207.66;5033532;28;20219;-86
2023/08/15 02:00:58;;;;;;;6.22;2.55;;;;;;;21.59;100.00;96210.63;5034301;28;20690;-86
2023/08/15 02:03:25;;;;;;;3.47;2.10;;;;;;;21.60;100.00;96206.84;5034041;28;20712;-86
2023/08/15 02:05:52;;;;;;;4.15;2.38;;;;;;;21.49;100.00;96197.03;5032873;28;20201;-85
2023/08/15 02:08:18;;;;;;;3.45;2.25;;;;;;;21.52;100.00;96199.22;5032286;28;20201;-86
2023/08/15 02:10:45;;;;;;;5.18;2.80;;;;;;;21.47;100.00;96196.44;5032903;28;20206;-86
2023/08/15 02:13:13;;;;;;;4.30;2.35;;;;;;;21.76;100.00;96189.94;5033104;28;20218;-87
2023/08/15 02:15:39;;;;;;;3.38;2.38;;;;;;;21.65;100.00;96188.16;5033559;28;20577;-86
2023/08/15 02:18:06;;;;;;;6.32;2.72;;;;;;;21.58;100.00;96196.38;5033588;28;20202;-86
2023/08/15 02:20:32;;;;;;;5.05;2.70;;;;;;;21.58;100.00;96195.59;5032962;28;20204;-86
2023/08/15 02:22:59;;;;;;;6.93;2.95;;;;;;;21.51;100.00;96192.25;5033235;28;20232;-86
2023/08/15 02:25:25;;;;;;;6.30;2.80;;;;;;;21.51;100.00;96185.03;5033237;28;20212;-86
2023/08/15 02:27:52;;;;;;;5.32;1.90;;;;;;;21.44;100.00;96178.19;5032600;28;20210;-86
2023/08/15 02:30:20;;;;;;;6.10;3.10;;;;;;;21.37;100.00;96174.81;5032674;28;20196;-87
2023/08/15 02:32:46;;;;;;;14.98;3.35;;;;;;;21.42;100.00;96173.06;5032644;28;20198;-86
2023/08/15 02:35:13;;;;;;;4.00;2.10;;;;;;;21.42;100.00;96180.28;5034735;28;20202;-86
2023/08/15 02:37:39;;;;;;;6.53;2.97;;;;;;;21.31;100.00;96183.03;5035817;28;20554;-86
2023/08/15 02:40:09;;;;;;;17.10;2.53;;;;;;;21.48;100.00;96187.34;5035237;28;20212;-86
2023/08/15 02:42:36;;;;;;;4.85;2.47;;;;;;;21.37;100.00;96185.56;5018165;28;20225;-86
2023/08/15 02:45:02;;;;;;;3.60;2.35;;;;;;;21.43;100.00;96184.59;5034354;28;20205;-87
2023/08/15 02:47:30;;;;;;;6.82;2.08;;;;;;;21.51;100.00;96178.84;5033532;28;20201;-86
2023/08/15 02:49:57;;;;;;;3.17;2.13;;;;;;;21.30;100.00;96176.88;5032750;28;20234;-86
2023/08/15 02:52:23;;;;;;;5.57;2.80;;;;;;;21.19;100.00;96176.97;5033229;28;20202;-86
2023/08/15 02:54:50;;;;;;;6.68;2.42;;;;;;;21.23;100.00;96178.94;5033279;28;20652;-86
2023/08/15 02:57:16;;;;;;;3.85;2.30;;;;;;;21.20;100.00;96178.59;5033414;28;20202;-86
2023/08/15 02:59:43;;;;;;;4.47;2.03;;;;;;;21.20;100.00;96178.59;5032101;28;20201;-86
2023/08/15 03:02:09;;;;;;;5.40;2.28;;;;;;;21.21;100.00;96181.03;5032024;28;20225;-86
2023/08/15 03:04:37;;;;;;;4.30;2.33;;;;;;;21.31;100.00;96186.56;5032066;28;20222;-86
2023/08/15 03:07:04;;;;;;;4.13;2.40;;;;;;;21.13;100.00;96189.47;5032457;28;20202;-86
2023/08/15 03:09:30;;;;;;;3.55;2.55;;;;;;;21.20;100.00;96175.91;5033665;28;20752;-87
2023/08/15 03:11:57;;;;;;;5.30;2.25;;;;;;;21.18;100.00;96181.53;5035492;28;20681;-87
2023/08/15 03:14:23;;;;;;;3.05;2.28;;;;;;;21.16;100.00;96185.50;5037285;28;20218;-86
2023/08/15 03:16:50;;;;;;;4.88;2.70;;;;;;;21.13;100.00;96194.84;5036941;28;20213;-86
2023/08/15 03:19:16;;;;;;;3.60;2.35;;;;;;;21.04;100.00;96190.94;5038050;28;20254;-86
2023/08/15 03:21:44;;;;;;;3.17;1.88;;;;;;;21.24;100.00;96185.88;5038106;28;20222;-86
2023/08/15 03:24:11;;;;;;;6.75;1.88;;;;;;;21.13;100.00;96189.47;5038781;28;20596;-86
2023/08/15 03:26:37;;;;;;;4.80;2.53;;;;;;;21.14;100.00;96195.63;5039042;28;20202;-86
2023/08/15 03:29:04;;;;;;;4.95;1.95;;;;;;;21.13;100.00;96184.13;5038171;28;20208;-86
2023/08/15 03:34:59;;;;;;;4.28;2.65;;;;;;;21.27;100.00;96174.69;5002969;28;20545;-73
2023/08/15 03:37:26;;;;;;;4.85;2.80;;;;;;;21.00;100.00;96171.03;5003286;28;20210;-73
2023/08/15 03:39:52;;;;;;;3.33;2.47;;;;;;;21.15;100.00;96176.63;5003221;28;20202;-72
2023/08/15 03:42:19;;;;;;;5.07;2.53;;;;;;;21.27;100.00;96174.69;5003374;28;20241;-72
2023/08/15 03:44:45;;;;;;;6.40;2.95;;;;;;;21.27;100.00;96180.06;5002934;28;20202;-72
2023/08/15 03:47:12;;;;;;;3.38;2.47;;;;;;;21.28;100.00;96184.34;5002534;28;20210;-72
2023/08/15 03:49:38;;;;;;;3.78;2.10;;;;;;;21.33;100.00;96189.78;5003770;28;20199;-72
2023/08/15 03:52:06;;;;;;;8.73;2.80;;;;;;;21.43;100.00;96188.09;5003141;28;20230;-72
2023/08/15 03:54:33;;;;;;;8.40;2.90;;;;;;;21.21;100.00;96189.06;5002901;28;20223;-72
2023/08/15 03:56:59;;;;;;;3.75;2.45;;;;;;;21.26;100.00;96199.88;5003029;28;20840;-72
2023/08/15 03:59:26;;;;;;;4.05;2.20;;;;;;;21.26;100.00;96189.16;5004379;28;20199;-72
2023/08/15 04:01:52;;;;;;;5.57;2.55;;;;;;;21.15;100.00;96200.75;5003692;28;20226;-72
2023/08/15 04:04:19;;;;;;;4.82;2.55;;;;;;;21.32;100.00;96204.25;5004121;28;20203;-72
2023/08/15 04:06:45;;;;;;;8.23;3.17;;;;;;;21.35;100.00;96200.28;5004320;28;20199;-72
2023/08/15 04:09:13;;;;;;;4.45;2.53;;;;;;;21.54;100.00;96205.97;5003700;28;20213;-72
2023/08/15 04:11:40;;;;;;;3.85;2.38;;;;;;;21.39;100.00;96210.25;5004384;28;20250;-72
2023/08/15 04:14:06;;;;;;;8.45;2.30;;;;;;;21.39;100.00;96202.22;5003701;28;20225;-72
2023/08/15 04:16:33;;;;;;;5.75;3.10;;;;;;;21.41;100.00;96215.38;5003947;28;20209;-72
2023/08/15 04:18:59;;;;;;;6.05;3.25;;;;;;;21.49;100.00;96221.97;5004050;28;20207;-72
2023/08/15 04:21:26;;;;;;;4.53;2.42;;;;;;;21.50;100.00;96223.63;5003511;28;20230;-72
2023/08/15 04:23:52;;;;;;;4.65;2.50;;;;;;;21.43;100.00;96227.47;5003251;28;20206;-74
2023/08/15 04:26:20;;;;;;;4.25;2.58;;;;;;;21.67;100.00;96229.78;5002407;28;20609;-74
2023/08/15 04:28:47;;;;;;;6.68;2.80;;;;;;;21.53;100.00;96233.03;5002674;28;20203;-74
2023/08/15 04:31:13;;;;;;;4.78;2.58;;;;;;;21.56;100.00;96238.75;5002303;28;20711;-74
2023/08/15 04:33:40;;;;;;;3.70;1.98;;;;;;;21.56;100.00;96230.69;5002074;28;21229;-74
2023/08/15 04:36:06;;;;;;;5.25;3.35;;;;;;;21.64;100.00;96240.19;5002793;28;20206;-74
2023/08/15 04:38:33;;;;;;;4.65;2.85;;;;;;;21.69;100.00;96235.72;5002392;28;20206;-74
2023/08/15 04:40:59;;;;;;;4.80;2.58;;;;;;;21.60;100.00;96239.03;5002527;28;20613;-74
2023/08/15 04:43:27;;;;;;;4.55;2.63;;;;;;;21.73;100.00;96238.72;5002129;28;20206;-74
2023/08/15 04:45:54;;;;;;;5.85;2.95;;;;;;;21.61;100.00;96236.13;4991779;28;20211;-74
2023/08/15 04:48:20;;;;;;;5.15;2.50;;;;;;;21.60;100.00;96237.19;4989299;28;20564;-74
2023/08/15 04:50:47;;;;;;;5.35;2.50;;;;;;;21.68;100.00;96241.34;4989522;28;20231;-74
2023/08/15 04:53:13;;;;;;;3.47;2.20;;;;;;;21.78;100.00;96236.09;4989304;28;20207;-73
2023/08/15 04:55:40;;;;;;;5.28;3.17;;;;;;;21.88;100.00;96236.25;4989576;28;20203;-73
2023/08/15 04:58:09;;;;;;;5.32;2.80;;;;;;;21.93;100.00;96242.53;4989425;28;20215;-73
2023/08/15 05:00:36;;;;;;;5.47;3.17;;;;;;;22.08;100.00;96235.50;4988858;28;20219;-72
2023/08/15 05:03:03;;;;;;;5.97;2.88;;;;;;;21.83;100.00;96250.41;4989230;28;20677;-72
2023/08/15 05:05:30;;;;;;;11.07;3.80;;;;;;;21.62;100.00;96253.03;4988896;28;20199;-72
2023/08/15 05:07:56;;;;;;;5.53;3.20;;;;;;;21.63;100.00;96251.97;4989132;28;20203;-72
2023/08/15 05:10:23;;;;;;;9.48;3.22;;;;;;;21.69;100.00;96248.31;4988732;28;20199;-71
2023/08/15 05:12:49;;;;;;;4.80;2.70;;;;;;;21.80;100.00;96250.88;4988982;28;20203;-71
2023/08/15 05:15:16;;;;;;;4.45;2.85;;;;;;;21.89;100.00;96251.31;4988286;28;20235;-71
2023/08/15 05:17:44;;;;;;;6.68;2.85;;;;;;;22.13;100.00;96251.69;4989295;28;20212;-72
2023/08/15 05:20:12;;;;;;;10.00;3.00;;;;;;;22.17;100.00;96251.97;4988119;28;20745;-72
2023/08/15 05:22:38;;;;;;;8.45;3.92;;;;;;;22.06;100.00;96272.50;4989387;28;20211;-71
2023/08/15 05:25:05;;;;;;;7.10;3.22;;;;;;;22.04;100.00;96269.22;4988234;28;20744;-72
2023/08/15 05:27:31;;;;;;;6.72;3.47;;;;;;;22.12;100.00;96276.06;4988913;28;20203;-72
2023/08/15 05:29:58;;;;;;;6.38;3.17;;;;;;;22.23;100.00;96273.25;4990033;28;20207;-72
2023/08/15 05:32:25;;;;;;;5.68;3.47;;;;;;;22.32;100.00;96279.06;4990152;28;20228;-72
2023/08/15 05:34:52;;;;;;;5.82;3.05;;;;;;;22.54;100.00;96272.63;4988376;28;20219;-72
2023/08/15 05:37:19;;;;;;;7.25;3.65;;;;;;;22.44;100.00;96269.84;4989335;28;20207;-72
2023/08/15 05:39:46;;;;;;;7.80;3.55;;;;;;;22.54;100.00;96269.13;4990454;28;20833;-74
2023/08/15 05:42:17;;;;;;;4.90;2.83;;;;;;;22.67;100.00;96268.75;4989076;28;20732;-72
2023/08/15 05:44:43;;;;;;;6.43;3.28;;;;;;;22.70;100.00;96274.44;4988237;28;20206;-72
2023/08/15 05:47:10;;;;;;;8.20;3.28;;;;;;;22.80;100.00;96258.44;4989351;28;20211;-73
2023/08/15 05:49:36;;;;;;;7.57;3.67;;;;;;;22.87;100.00;96259.88;4987584;28;20202;-72
2023/08/15 05:52:04;;;;;;;7.05;3.25;;;;;;;22.97;100.00;96265.34;4988295;28;20222;-72
2023/08/15 05:54:31;;;;;;;5.25;3.00;;;;;;;22.91;100.00;96270.91;4987846;28;20310;-73
2023/08/15 05:56:56;;;;;;;7.63;3.90;;;;;;;22.94;100.00;96281.19;4987875;28;20211;-73
2023/08/15 05:59:23;;;;;;;8.38;3.67;;;;;;;22.95;100.00;96277.41;4987373;28;20199;-74
2023/08/15 06:01:50;;;;;;;4.55;2.88;;;;;;;23.09;100.00;96278.66;4989102;28;20227;-72
2023/08/15 06:04:16;;;;;;;5.32;2.92;;;;;;;23.14;100.00;96266.09;4988362;28;20669;-73
2023/08/15 06:06:43;;;;;;;6.90;3.70;;;;;;;23.27;100.00;96276.44;4987786;28;20211;-73
2023/08/15 06:09:11;;;;;;;6.13;3.53;;;;;;;23.45;100.00;96273.38;4988650;28;20256;-73
2023/08/15 06:11:38;;;;;;;9.77;3.70;;;;;;;23.30;100.00;96274.03;4986808;28;20219;-72
2023/08/15 06:14:05;;;;;;;5.78;3.15;;;;;;;23.38;100.00;96287.06;4986442;28;20225;-73
2023/08/15 06:16:31;;;;;;;7.28;3.65;;;;;;;23.18;100.00;96285.22;4986642;28;20210;-72
2023/08/15 06:18:58;;;;;;;7.53;3.60;;;;;;;23.30;100.00;96289.38;4986865;28;20575;-72
2023/08/15 06:21:25;;;;;;;7.13;3.70;;;;;;;23.21;100.00;96282.03;4985561;28;20254;-72
2023/08/15 06:23:51;;;;;;;6.30;3.92;;;;;;;23.25;100.00;96288.53;4985874;28;20769;-72
2023/08/15 06:26:19;;;;;;;6.82;4.07;;;;;;;23.47;100.00;96287.38;4987373;28;20210;-72
2023/08/15 06:28:45;;;;;;;7.60;3.50;;;;;;;23.38;100.00;96296.97;4987198;28;20218;-72
2023/08/15 06:31:12;;;;;;;6.63;3.58;;;;;;;23.30;100.00;96314.38;4987764;28;20234;-72
2023/08/15 06:33:38;;;;;;;6.15;3.10;;;;;;;23.31;100.00;96313.31;4987442;28;20208;-72
2023/08/15 06:36:05;;;;;;;6.95;3.75;;;;;;;23.33;100.00;96313.91;4988053;28;20268;-72
2023/08/15 06:38:32;;;;;;;8.07;3.67;;;;;;;23.42;100.00;96311.53;4987442;28;20207;-72
2023/08/15 06:40:58;;;;;;;8.75;3.72;;;;;;;23.41;100.00;96318.00;4987329;28;20231;-72
2023/08/15 06:43:26;;;;;;;4.25;2.92;;;;;;;23.62;100.00;96319.81;4987458;28;20334;-72
2023/08/15 06:45:53;;;;;;;7.25;3.55;;;;;;;23.43;100.00;96322.06;4989465;28;21237;-72
2023/08/15 06:48:22;;;;;;;5.32;3.28;;;;;;;23.56;100.00;96323.50;4989745;28;20230;-72
2023/08/15 06:50:48;;;;;;;6.60;3.58;;;;;;;23.81;100.00;96332.66;4985290;28;20274;-71
2023/08/15 06:53:14;;;;;;;19.85;3.88;;;;;;;23.81;100.00;96324.59;4987480;28;20211;-71
2023/08/15 06:55:41;;;;;;;5.20;3.00;;;;;;;23.81;100.00;96321.88;4986812;28;20219;-72
2023/08/15 06:58:07;;;;;;;6.43;3.35;;;;;;;23.88;100.00;96330.59;4987228;28;20572;-72
2023/08/15 07:00:35;;;;;;;6.22;3.35;;;;;;;24.03;100.00;96341.44;4978821;28;20227;-72
2023/08/15 07:03:02;;;;;;;4.18;2.92;;;;;;;23.92;100.00;96336.25;4976010;28;20222;-72
2023/08/15 07:05:28;;;;;;;6.15;3.28;;;;;;;23.82;100.00;96347.75;4985827;28;20207;-72
2023/08/15 07:07:55;;;;;;;5.00;3.63;;;;;;;23.79;100.00;96342.88;4987235;28;20215;-71
2023/08/15 07:10:21;;;;;;;12.93;3.80;;;;;;;24.07;100.00;96343.38;4986834;28;20691;-72
2023/08/15 07:12:48;;;;;;;7.28;3.70;;;;;;;23.93;100.00;96344.09;4986649;28;21185;-73
2023/08/15 07:15:14;;;;;;;5.57;3.15;;;;;;;24.16;100.00;96346.38;4986381;28;20230;-73
2023/08/15 07:17:42;;;;;;;5.63;3.15;;;;;;;24.45;100.00;96339.63;4986299;28;20207;-73
2023/08/15 07:20:14;;;;;;;6.80;3.10;;;;;;;24.47;100.00;96334.81;4986989;28;20203;-73
2023/08/15 07:22:40;;;;;;;5.65;3.22;;;;;;;24.63;100.00;96337.28;4986566;28;20207;-73
2023/08/15 07:25:07;;;;;;;6.68;3.80;;;;;;;24.79;100.00;96339.81;4986591;28;20198;-74
2023/08/15 07:27:33;;;;;;;6.63;3.17;;;;;;;24.86;100.00;96332.31;4985655;28;20207;-74
2023/08/15 07:30:00;;;;;;;6.97;3.13;;;;;;;25.16;100.00;96337.03;4986820;28;20203;-73
2023/08/15 07:32:27;;;;;;;8.40;3.45;;;;;;;25.26;100.00;96338.66;4985578;28;20224;-73
2023/08/15 07:34:55;;;;;;;7.00;3.45;;;;;;;25.32;100.00;96342.22;4985965;28;20242;-74
2023/08/15 07:37:22;;;;;;;4.93;3.17;;;;;;;25.56;100.00;96337.94;4985564;28;20211;-74
2023/08/15 07:39:58;;;;;;;6.13;3.03;;;;;;;26.06;100.00;96338.84;4984844;28;20199;-73
2023/08/15 07:42:26;;;;;;;6.80;3.17;;;;;;;26.43;100.00;96332.06;4974758;28;20602;-73
2023/08/15 07:44:52;;;;;;;5.82;3.28;;;;;;;26.40;100.00;96332.63;4978997;28;20202;-74
2023/08/15 07:47:19;;;;;;;6.13;3.45;;;;;;;26.34;100.00;96336.41;4986778;28;20203;-73
2023/08/15 07:49:45;;;;;;;5.82;3.10;;;;;;;26.61;100.00;96334.97;4986131;28;20549;-73
2023/08/15 07:52:13;;;;;;;5.43;2.95;;;;;;;27.01;100.00;96334.09;4986609;28;20223;-74
2023/08/15 07:54:40;;;;;;;5.63;3.15;;;;;;;27.08;100.00;96328.09;4986085;28;20584;-74
2023/08/15 07:57:06;;;;;;;5.85;3.67;;;;;;;27.28;100.00;96336.13;4986671;28;20553;-74
2023/08/15 07:59:33;;;;;;;5.63;2.92;;;;;;;27.55;100.00;96333.81;4985549;28;20200;-74
2023/08/15 08:01:59;;;;;;;4.25;2.60;;;;;;;27.91;100.00;96338.72;4986323;28;20225;-73
2023/08/15 08:04:26;;;;;;;5.80;2.60;;;;;;;27.96;100.00;96346.00;4980097;28;20203;-73
2023/08/15 08:06:52;;;;;;;6.68;3.50;;;;;;;28.18;100.00;96343.69;4971904;28;20203;-74
2023/08/15 08:09:20;;;;;;;5.82;3.10;;;;;;;28.26;100.00;96345.78;4973862;28;20200;-74
2023/08/15 08:11:48;;;;;;;3.92;2.50;;;;;;;28.05;100.00;96349.72;4980133;28;20238;-74
2023/08/15 08:14:14;;;;;;;7.93;2.80;;;;;;;28.27;100.00;96353.63;4985495;28;20303;-74
2023/08/15 08:16:41;;;;;;;4.30;2.72;;;;;;;28.33;100.00;96354.41;4986155;28;20211;-73
2023/08/15 08:19:07;;;;;;;4.88;2.65;;;;;;;28.46;100.00;96354.53;4985782;28;20722;-74
2023/08/15 08:21:36;;;;;;;4.38;2.50;;;;;;;28.51;100.00;96359.91;4988845;28;20227;-73
2023/08/15 08:24:04;;;;;;;5.43;2.83;;;;;;;28.55;100.00;96340.09;4989809;28;20207;-74
2023/08/15 08:26:31;;;;;;;4.47;2.47;;;;;;;28.96;100.00;96342.09;4989332;28;20670;-74
2023/08/15 08:28:58;;;;;;;5.40;3.03;;;;;;;28.77;100.00;96343.16;4989739;28;20226;-74
2023/08/15 08:31:24;;;;;;;4.18;2.45;;;;;;;28.87;100.00;96348.47;4984665;28;20258;-73
2023/08/15 08:33:51;;;;;;;4.78;3.13;;;;;;;29.11;100.00;96349.25;4976848;28;20238;-73
2023/08/15 08:36:17;;;;;;;3.85;2.35;;;;;;;28.92;100.00;96343.00;4983458;28;20991;-74
2023/08/15 08:38:44;;;;;;;5.00;2.17;;;;;;;28.94;100.00;96343.50;4988724;28;20207;-73
2023/08/15 08:41:11;;;;;;;4.43;2.28;;;;;;;28.93;100.00;96346.50;4988924;28;20231;-73
2023/08/15 08:43:39;;;;;;;3.72;2.38;;;;;;;29.17;100.00;96343.47;4988266;28;20203;-72
2023/08/15 08:46:08;;;;;;;3.67;2.67;;;;;;;29.16;100.00;96344.59;4988460;28;20965;-73
2023/08/15 08:48:35;;;;;;;4.47;2.58;;;;;;;29.40;100.00;96347.31;4989854;28;20207;-72
2023/08/15 08:51:02;;;;;;;4.63;2.40;;;;;;;29.62;100.00;96346.44;4988663;28;20219;-72
2023/08/15 08:53:29;;;;;;;5.60;2.80;;;;;;;29.71;100.00;96347.41;4989553;28;20209;-72
2023/08/15 08:55:56;;;;;;;4.00;2.50;;;;;;;30.02;100.00;96345.06;4987812;28;20314;-73
2023/08/15 08:58:26;;;;;;;4.38;2.33;;;;;;;29.99;96.74;96343.75;4988763;28;20294;-72
2023/08/15 09:00:54;;;;;;;2.75;1.70;;;;;;;30.37;79.46;96346.09;4988309;28;20223;-73
2023/08/15 09:03:20;;;;;;;2.47;1.67;;;;;;;30.38;79.18;96349.63;4988812;28;20203;-74
2023/08/15 09:05:47;;;;;;;2.85;1.58;;;;;;;30.43;68.71;96353.09;4988467;28;20587;-74
2023/08/15 09:08:14;;;;;;;5.07;1.45;;;;;;;30.56;68.17;96354.22;4988100;28;20211;-73
2023/08/15 09:10:40;;;;;;;2.55;1.50;;;;;;;30.47;58.66;96356.03;4988423;28;20219;-74
2023/08/15 09:13:07;;;;;;;3.10;1.65;;;;;;;30.77;61.28;96350.03;4988415;28;20206;-74
2023/08/15 09:15:34;;;;;;;2.22;1.20;;;;;;;30.92;61.92;96351.38;4987954;28;20276;-74
2023/08/15 09:18:04;;;;;;;1.67;1.33;;;;;;;31.17;61.71;96347.38;4988393;28;20677;-74
2023/08/15 09:20:31;;;;;;;1.88;1.02;;;;;;;30.68;62.23;96346.38;4987866;28;20223;-73
2023/08/15 09:22:58;;;;;;;3.33;1.45;;;;;;;30.52;58.75;96358.66;4988451;28;20208;-73
2023/08/15 09:25:27;;;;;;;5.43;1.25;;;;;;;30.31;59.06;96362.81;4987896;28;20206;-73
2023/08/15 09:27:54;;;;;;;1.70;1.08;;;;;;;30.39;59.12;96362.13;4987419;28;20203;-73
2023/08/15 09:30:21;;;;;;;6.20;1.40;;;;;;;30.30;60.36;96364.69;4987369;28;20242;-73
2023/08/15 09:32:48;;;;;;;5.25;1.00;;;;;;;30.35;62.44;96358.38;4987517;28;20237;-73
2023/08/15 09:35:17;;;;;;;2.10;1.40;;;;;;;30.54;59.70;96368.13;4987699;28;20296;-73
2023/08/15 09:37:45;;;;;;;2.17;1.20;;;;;;;30.13;57.79;96360.09;4986848;28;20214;-72
2023/08/15 09:40:13;;;;;;;2.42;1.58;;;;;;;30.34;59.01;96364.91;4987283;28;20199;-72
2023/08/15 09:42:40;;;;;;;3.10;1.20;;;;;;;30.05;58.92;96367.00;4988298;28;20203;-71
2023/08/15 09:45:08;;;;;;;1.98;1.17;;;;;;;30.15;62.02;96366.84;4988767;28;20199;-71
2023/08/15 09:47:37;;;;;;;2.60;1.48;;;;;;;29.99;59.61;96361.94;4990091;28;20195;-71
2023/08/15 09:50:06;;;;;;;4.18;1.50;;;;;;;30.23;63.17;96364.28;4988820;28;20700;-71
2023/08/15 09:52:36;;;;;;;3.53;1.52;;;;;;;30.57;64.69;96372.16;4989493;28;20227;-71
2023/08/15 09:55:03;;;;;;;2.53;1.70;;;;;;;30.64;62.29;96367.13;4989666;28;20226;-71
2023/08/15 09:57:29;;;;;;;2.28;1.30;;;;;;;30.47;62.72;96369.63;4990695;28;20292;-71
2023/08/15 09:59:56;;;;;;;2.30;1.65;;;;;;;30.37;65.52;96367.03;4989919;28;20207;-71
2023/08/15 10:02:25;;;;;;;2.70;1.48;;;;;;;30.71;66.38;96364.84;4990094;28;20309;-71
2023/08/15 10:04:59;;;;;;;2.50;1.35;;;;;;;30.73;66.56;96359.91;4989668;28;20226;-71
2023/08/15 10:07:28;;;;;;;4.72;1.27;;;;;;;30.94;65.15;96360.09;4990349;28;20230;-71
2023/08/15 10:09:57;;;;;;;2.45;1.60;;;;;;;30.98;61.94;96357.53;4990673;28;20207;-71
2023/08/15 10:15:33;;;;;;;3.88;2.00;;;;;;;31.79;62.75;96367.28;5005654;28;20590;-71
2023/08/15 10:18:01;;;;;;;3.15;1.40;;;;;;;32.01;62.45;96367.34;5005102;28;20203;-72
2023/08/15 10:20:35;;;;;;;2.85;1.50;;;;;;;31.95;60.78;96368.56;5005835;28;20252;-71
2023/08/15 10:23:02;;;;;;;1.63;1.02;;;;;;;31.36;61.13;96378.03;5006436;28;20203;-71
2023/08/15 10:25:35;;;;;;;2.92;1.23;;;;;;;31.63;57.15;96373.38;4999272;28;20209;-71
2023/08/15 10:28:06;;;;;;;3.30;1.88;;;;;;;31.29;56.75;96375.72;4993929;28;20279;-72
2023/08/15 10:30:36;;;;;;;2.35;1.00;;;;;;;31.15;56.30;96374.91;5002736;28;20230;-71
2023/08/15 10:33:13;;;;;;;2.30;1.10;;;;;;;31.09;55.92;96373.38;5004829;28;20210;-71
2023/08/15 10:35:48;;;;;;;2.58;0.95;;;;;;;30.82;54.47;96377.16;5004187;28;20595;-71
2023/08/15 10:38:15;;;;;;;1.77;1.00;;;;;;;30.53;54.15;96385.56;5004189;28;20266;-71
2023/08/15 10:40:44;;;;;;;4.05;0.85;;;;;;;30.53;56.13;96385.56;5000238;28;20229;-71
2023/08/15 10:43:11;;;;;;;4.80;1.38;;;;;;;30.28;56.29;96399.56;4993449;28;20779;-71
2023/08/15 10:45:42;;;;;;;1.98;1.00;;;;;;;30.06;55.43;96384.94;4991355;28;20288;-71
2023/08/15 10:48:09;;;;;;;1.25;0.80;;;;;;;30.02;54.22;96397.50;4994457;28;20199;-71
2023/08/15 10:50:37;;;;;;;2.72;1.15;;;;;;;29.95;55.17;96388.09;5002015;28;21040;-71
2023/08/15 10:53:06;;;;;;;4.65;1.10;;;;;;;29.94;56.31;96381.88;4993643;28;20629;-71
2023/08/15 10:55:35;;;;;;;1.33;0.93;;;;;;;29.94;57.02;96381.03;4992306;28;20204;-71
2023/08/15 10:58:05;;;;;;;1.40;1.00;;;;;;;29.97;56.68;96386.72;4993072;28;20218;-72
2023/08/15 11:00:32;;;;;;;4.18;1.10;;;;;;;29.98;57.59;96388.34;4992458;28;20704;-71
2023/08/15 11:03:01;;;;;;;5.40;1.35;;;;;;;30.08;58.81;96393.63;4992235;28;20231;-72
2023/08/15 11:05:28;;;;;;;1.92;1.00;;;;;;;30.00;59.38;96386.09;4992906;28;20226;-71
2023/08/15 11:07:55;;;;;;;3.85;1.20;;;;;;;30.06;59.78;96382.22;4993071;28;20203;-72
2023/08/15 11:10:23;;;;;;;2.88;0.70;;;;;;;30.53;58.36;96380.13;4990714;28;20211;-72
2023/08/15 11:12:51;;;;;;;5.03;1.50;;;;;;;30.61;55.30;96389.50;4991651;28;20987;-71
2023/08/15 11:15:17;;;;;;;4.05;1.30;;;;;;;30.48;57.39;96382.91;5004008;28;20207;-71
2023/08/15 11:17:47;;;;;;;1.52;1.10;;;;;;;30.54;60.35;96381.75;5005077;28;20566;-71
2023/08/15 11:20:15;;;;;;;1.40;0.70;;;;;;;30.85;57.01;96380.91;5003922;28;20214;-71
2023/08/15 11:22:42;;;;;;;4.25;1.10;;;;;;;30.58;54.63;96377.31;5002985;28;20207;-71
2023/08/15 11:25:09;;;;;;;9.32;1.00;;;;;;;30.54;53.15;96376.28;4996232;28;20226;-71
2023/08/15 11:27:39;;;;;;;7.53;1.58;;;;;;;30.72;53.57;96377.34;4978663;28;20211;-72
2023/08/15 11:30:07;;;;;;;5.22;1.63;;;;;;;30.70;54.30;96374.91;4985357;28;20210;-72
2023/08/15 11:32:34;;;;;;;5.00;1.05;;;;;;;30.65;53.81;96377.75;4991052;28;20227;-72
2023/08/15 11:35:00;;;;;;;1.80;0.75;;;;;;;30.48;55.03;96377.47;4991096;28;20200;-72